CYFCCYQI

Guest
Details From CYFC - FREDERICTON
To CYQI - YARMOUTH
Flight Number -
Tags generated
Created
Modified
Stats Distance 126 nm / 234 km
Max Altitude 10,600 ft / 3,231 m
Waypoints 3
Social Downloads 0
Likes 0
Share VATSIM

Download

Looking for another format? Having issues loading an existing format? Contact us
Advertisement - Login to hide

Notes

Basic altitude profile: - Ascent Rate: 2500ft/min - Ascent Speed: 250kts - Cruise Altitude: 35000ft - Cruise Speed: 420kts - Descent Rate: 1500ft/min - Descent Speed: 250kts Options: - Use NATs: yes - Use PACOTS: yes - Use low airways: yes - Use high airways: yes

Route

CYFC MOWND CYQI

ID Type Via Altitude Latitude Longitude Leg Dist Tot Dist Heading (true) Name
O CYFC APT - 0 ft / 0 m 45.86801˚ -66.53327˚ - 0 nm - FREDERICTON
MOWND FIX - 10,600 ft / 3,231 m 45.37741˚ -66.65727˚ 29 nm 29 nm 190° / 190° -
O CYQI APT - 0 ft / 0 m 43.82806˚ -66.08799˚ 96 nm 126 nm 165° / 166° YARMOUTH

Altitude Profile

Advertisement - Login to hide

CYFC

Details ICAO CYFC (YFC)
Name FREDERICTON
Region Canada
Timezone America/Moncton (UTC-4.0)
Stats Elevation 68 ft / 21 m (AMSL)
Location 45.868013° -66.533273°
Runways 2
Magnetic Variation 17.136° W

METAR

CYFC 150400Z AUTO 21010KT 9SM CLR M15/M18 A2969 RMK SLP056

Decode

TAF

TAF TAF CYFC 142338Z 1500/1512 24010KT P6SM FEW030 BECMG 1500/1502 24012G22KT RMK FCST BASED ON AUTO OBS. NXT FCST BY 150600Z

Decode

Departure Runways

ID Width Length Bearing (true) Bearing (mag) Surface Threshold Offset Overrun Length
09 200 ft / 61 m 7,883 ft / 2,403 m 69.85° 86.99° Asphalt 0 ft / 0 m 0 ft / 0 m
15 200 ft / 61 m 5,898 ft / 1,798 m 130.39° 147.53° Asphalt 0 ft / 0 m 0 ft / 0 m
27 200 ft / 61 m 7,883 ft / 2,403 m 249.87° 267.01° Asphalt 0 ft / 0 m 0 ft / 0 m
33 200 ft / 61 m 5,898 ft / 1,798 m 310.41° 327.55° Asphalt 0 ft / 0 m 0 ft / 0 m

CYQI

Details ICAO CYQI (YQI)
Name YARMOUTH
Region Canada
Timezone America/Halifax (UTC-4.0)
Stats Elevation 141 ft / 43 m (AMSL)
Location 43.828055° -66.087987°
Runways 2
Magnetic Variation 16.635° W

METAR

CYQI 150400Z 30018G25KT 15SM BKN033 M03/M10 A2977 RMK SC7 SLP084

Decode

TAF

TAF CYQI 142338Z 1500/1512 31017G27KT P6SM BKN030 TEMPO 1500/1512 3SM -SHSN BLSN OVC025 RMK NXT FCST BY 150600Z

Decode

Destination Runways

ID Width Length Bearing (true) Bearing (mag) Surface Threshold Offset Overrun Length
06 151 ft / 46 m 6,006 ft / 1,831 m 42.05° 58.68° Concrete 0 ft / 0 m 0 ft / 0 m
15 151 ft / 46 m 5,024 ft / 1,531 m 133.31° 149.94° Concrete 0 ft / 0 m 0 ft / 0 m
24 151 ft / 46 m 6,006 ft / 1,831 m 222.06° 238.69° Concrete 0 ft / 0 m 0 ft / 0 m
33 151 ft / 46 m 5,024 ft / 1,531 m 313.32° 329.95° Concrete 0 ft / 0 m 0 ft / 0 m

Approach Navaids

Runway Type Ident Frequency Range Bearing (true) Bearing (mag) Slope Elevation
24 Localiser IQI 109.70 MHz 18 nm / 33 km 222.05° 238.69° - 141 ft / 43 m (AMSL)
24 Glidescope IQI 109.70 MHz 10 nm / 19 km 242.05° 258.69° 3.00° 141 ft / 43 m (AMSL)